Time;durP1;ratioP1;P1;durP2;ratioP2;P2;SDS_P1;SDS_P2;PMS_P1;PMS_P2;Temp;Humidity;BMP_temperature;BMP_pressure;BME280_temperature;BME280_humidity;BME280_pressure;Samples;Min_cycle;Max_cycle;Signal;HPM_P1;HPM_P2
2021/04/01 00:00:37;;;;;;;0.70;0.50;;;10.40;99.90;;;10.95;100.00;66776.59;4985744;28;20466;-72
2021/04/01 00:03:05;;;;;;;1.00;0.77;;;10.40;99.90;;;10.97;100.00;68756.16;4993936;28;20497;-72
2021/04/01 00:05:32;;;;;;;0.70;0.60;;;10.40;99.90;;;10.86;100.00;68742.84;5002250;28;20553;-71
2021/04/01 00:07:59;;;;;;;0.80;0.80;;;10.40;99.90;;;10.80;100.00;69065.06;5000313;28;20999;-71
2021/04/01 00:10:31;;;;;;;0.70;0.50;;;10.30;99.90;;;10.81;100.00;73352.75;5008760;28;20521;-72
2021/04/01 00:12:58;;;;;;;1.57;1.47;;;10.30;99.90;;;10.80;100.00;74340.63;4988420;28;20541;-72
2021/04/01 00:15:26;;;;;;;0.70;0.60;;;10.20;99.90;;;10.66;100.00;77292.78;4994360;28;20443;-73
2021/04/01 00:17:53;;;;;;;0.70;0.50;;;10.20;99.90;;;10.60;100.00;80588.47;4994686;28;20446;-71
2021/04/01 00:20:20;;;;;;;0.70;0.60;;;10.20;99.90;;;10.59;100.00;82571.16;5002906;28;20513;-71
2021/04/01 00:22:47;;;;;;;0.80;0.70;;;10.00;99.90;;;10.54;100.00;83886.00;5001736;28;20418;-70
2021/04/01 00:25:18;;;;;;;0.70;0.50;;;10.00;99.90;;;10.65;100.00;84563.78;5004167;28;20506;-71
2021/04/01 00:27:46;;;;;;;0.70;0.60;;;10.00;99.90;;;10.71;100.00;85565.50;4996028;28;20426;-72
2021/04/01 00:30:15;;;;;;;0.80;0.60;;;10.10;99.90;;;10.83;100.00;85913.75;4993538;28;20447;-71
2021/04/01 00:32:43;;;;;;;0.70;0.60;;;10.20;99.90;;;10.72;100.00;85566.28;4988808;28;20537;-71
2021/04/01 00:35:11;;;;;;;0.77;0.70;;;10.20;99.90;;;10.60;100.00;86211.84;4995683;28;20768;-71
2021/04/01 00:37:38;;;;;;;0.73;0.63;;;10.20;99.90;;;10.62;100.00;85883.81;4995102;28;20431;-72
2021/04/01 00:40:08;;;;;;;0.70;0.60;;;10.10;99.90;;;10.64;100.00;84893.94;4993733;28;20469;-71
2021/04/01 00:42:36;;;;;;;0.70;0.60;;;10.00;99.90;;;10.94;100.00;87917.78;4993902;28;20489;-71
2021/04/01 00:45:07;;;;;;;0.70;0.50;;;10.20;99.90;;;10.81;100.00;85911.50;4995093;28;20457;-70
2021/04/01 00:47:36;;;;;;;0.80;0.70;;;10.20;99.90;;;10.78;100.00;84582.19;4977918;28;20509;-72
2021/04/01 00:50:08;;;;;;;0.70;0.60;;;10.20;99.90;;;10.78;100.00;84582.19;4995354;28;20451;-72
2021/04/01 00:52:36;;;;;;;0.70;0.60;;;10.20;99.90;;;10.90;100.00;86255.41;4993897;28;20441;-72
2021/04/01 00:55:05;;;;;;;0.70;0.60;;;10.30;99.90;;;10.85;100.00;85254.56;4993847;28;20521;-71
2021/04/01 00:57:33;;;;;;;0.70;0.60;;;10.40;99.90;;;10.78;100.00;83920.38;4993954;28;20984;-72
2021/04/01 01:00:01;;;;;;;0.80;0.80;;;10.20;99.90;;;10.90;100.00;85593.09;4993599;28;20469;-72
2021/04/01 01:02:29;;;;;;;0.70;0.60;;;10.40;99.90;;;10.94;100.00;82620.13;4995303;28;20901;-71
2021/04/01 01:04:59;;;;;;;0.90;0.80;;;10.50;99.90;;;10.85;100.00;80292.34;4994863;28;20447;-70
2021/04/01 01:07:26;;;;;;;0.70;0.60;;;10.40;99.90;;;10.79;100.00;77641.31;4999568;28;20496;-70
2021/04/01 01:09:53;;;;;;;0.70;0.60;;;10.20;99.90;;;10.85;100.00;79631.94;5002656;28;20439;-73
2021/04/01 01:12:20;;;;;;;1.33;0.80;;;10.20;99.90;;;10.85;100.00;78970.31;4993956;28;20907;-71
2021/04/01 01:14:47;;;;;;;0.70;0.60;;;10.30;99.90;;;10.73;100.00;79284.84;4994310;28;20478;-71
2021/04/01 01:17:16;;;;;;;0.80;0.67;;;10.20;99.90;;;10.72;100.00;80935.22;4993272;28;20931;-71
2021/04/01 01:19:53;;;;;;;0.70;0.60;;;10.10;99.90;;;10.76;100.00;82594.94;4994713;28;20447;-71
2021/04/01 01:22:21;;;;;;;0.70;0.60;;;10.10;99.90;;;10.69;100.00;83246.31;4994544;28;20477;-72
2021/04/01 01:24:50;;;;;;;0.70;0.60;;;10.00;99.90;;;10.62;100.00;84890.97;4993183;28;20943;-70
2021/04/01 01:27:19;;;;;;;0.70;0.60;;;10.00;99.90;;;10.54;100.00;86864.09;4993629;28;20426;-71
2021/04/01 01:29:50;;;;;;;0.80;0.70;;;10.00;99.90;;;10.51;100.00;88183.91;5011330;28;20455;-72
2021/04/01 01:32:19;;;;;;;0.70;0.60;;;9.90;99.90;;;10.44;100.00;89498.63;4996934;28;20924;-72
2021/04/01 01:34:47;;;;;;;0.80;0.67;;;9.90;99.90;;;10.40;100.00;91481.09;4993238;28;20458;-73
2021/04/01 01:37:14;;;;;;;0.80;0.60;;;9.80;99.90;;;10.36;100.00;93132.09;4993054;28;20478;-71
2021/04/01 01:39:42;;;;;;;0.70;0.60;;;9.80;99.90;;;10.37;100.00;94791.03;4993769;28;20538;-71
2021/04/01 01:42:10;;;;;;;0.70;0.60;;;9.70;99.90;;;10.38;100.00;96451.66;4987751;28;20481;-73
2021/04/01 01:44:39;;;;;;;0.70;0.60;;;9.80;99.90;;;10.39;100.00;96121.50;5004959;28;20427;-72
2021/04/01 01:47:06;;;;;;;0.70;0.60;;;9.80;99.90;;;10.50;100.00;96802.91;4994179;28;20430;-73
2021/04/01 01:49:40;;;;;;;0.70;0.60;;;9.80;99.90;;;10.54;100.00;97474.50;4994483;28;20545;-73
2021/04/01 01:52:07;;;;;;;1.00;0.97;;;9.80;99.90;;;10.53;100.00;96807.91;4993526;28;20526;-73
2021/04/01 01:54:35;;;;;;;0.70;0.60;;;9.90;99.90;;;10.48;100.00;96800.38;4977019;28;20431;-71
2021/04/01 01:57:02;;;;;;;0.70;0.60;;;9.90;99.90;;;10.42;100.00;97122.25;4994438;28;20509;-72
2021/04/01 01:59:30;;;;;;;0.70;0.60;;;9.80;99.90;;;10.44;100.00;96460.88;4992931;28;20438;-72
2021/04/01 02:01:57;;;;;;;0.70;0.50;;;9.80;99.90;;;10.53;100.00;96144.00;4991700;28;20470;-70
2021/04/01 02:04:25;;;;;;;0.70;0.60;;;10.00;99.90;;;10.57;100.00;95818.78;4996274;28;20977;-72
2021/04/01 02:06:52;;;;;;;0.90;0.60;;;10.00;99.90;;;10.51;100.00;95476.94;4995156;28;20446;-71
2021/04/01 02:09:19;;;;;;;0.70;0.60;;;10.00;99.90;;;10.49;100.00;94810.78;4992822;28;20427;-72
2021/04/01 02:11:46;;;;;;;0.70;0.60;;;9.90;99.90;;;10.37;100.00;95122.78;4992800;28;20431;-72
2021/04/01 02:14:13;;;;;;;0.70;0.60;;;9.90;99.90;;;10.26;100.00;96431.56;4992688;28;20427;-72
2021/04/01 02:16:41;;;;;;;0.70;0.50;;;9.80;99.90;;;10.27;100.00;97761.63;4993362;28;20442;-71
2021/04/01 02:19:09;;;;;;;0.70;0.60;;;9.70;99.90;;;10.19;100.00;98411.00;4992368;28;20461;-72
2021/04/01 02:21:37;;;;;;;2.23;0.97;;;9.60;99.90;;;10.19;100.00;100071.19;4992966;28;20847;-71
2021/04/01 02:24:06;;;;;;;0.70;0.60;;;9.60;99.90;;;10.14;100.00;101392.00;4994069;28;20423;-71
2021/04/01 02:26:33;;;;;;;0.70;0.50;;;9.60;99.90;;;10.18;100.00;103060.63;4993589;28;20415;-71
2021/04/01 02:28:59;;;;;;;0.70;0.60;;;9.50;99.90;;;10.29;100.00;104077.84;4992441;28;20509;-71
2021/04/01 02:31:26;;;;;;;0.70;0.60;;;9.60;99.90;;;10.29;100.00;104742.13;4993728;28;20770;-72
2021/04/01 02:33:54;;;;;;;0.70;0.50;;;9.70;99.90;;;10.28;100.00;105073.84;4992007;28;20454;-72
2021/04/01 02:36:21;;;;;;;0.77;0.67;;;9.70;99.90;;;10.26;100.00;105069.28;4993367;28;20493;-72
2021/04/01 02:38:48;;;;;;;0.70;0.50;;;9.60;99.90;;;10.18;100.00;104722.13;4995172;28;20950;-72
2021/04/01 02:41:15;;;;;;;0.70;0.60;;;9.60;99.90;;;10.21;100.00;105726.34;4996268;28;20975;-71
2021/04/01 02:43:42;;;;;;;0.70;0.60;;;9.50;99.90;;;10.31;100.00;106742.09;4996243;28;20800;-71
2021/04/01 02:46:09;;;;;;;0.70;0.60;;;9.70;99.90;;;10.39;100.00;106091.25;4997445;28;20504;-73
2021/04/01 02:48:36;;;;;;;0.70;0.50;;;9.90;99.90;;;10.38;100.00;104425.81;4997755;28;20819;-71
2021/04/01 02:51:05;;;;;;;0.70;0.60;;;9.80;99.90;;;10.33;100.00;103751.63;4997733;28;20434;-71
2021/04/01 02:53:32;;;;;;;0.70;0.50;;;9.80;99.90;;;10.25;100.00;103738.13;4997715;28;21035;-72
2021/04/01 02:55:59;;;;;;;0.70;0.60;;;9.70;99.90;;;10.22;100.00;103399.34;4995862;28;20442;-72
2021/04/01 02:58:26;;;;;;;0.70;0.50;;;9.70;99.90;;;10.37;100.00;104756.66;4997292;28;20419;-72
2021/04/01 03:00:54;;;;;;;0.70;0.60;;;9.70;99.90;;;10.39;100.00;104095.00;5000286;28;20497;-73
2021/04/01 03:03:31;;;;;;;0.70;0.60;;;9.80;99.90;;;10.40;100.00;103431.63;5004103;28;20450;-72
2021/04/01 03:06:00;;;;;;;0.80;0.80;;;9.80;99.90;;;10.34;100.00;102423.44;4996732;28;20422;-73
2021/04/01 03:08:28;;;;;;;0.70;0.60;;;9.80;99.90;;;10.34;100.00;101426.31;4996055;28;20919;-71
2021/04/01 03:10:55;;;;;;;0.70;0.50;;;9.70;99.90;;;10.24;100.00;101408.72;4997183;28;20427;-73
2021/04/01 03:13:23;;;;;;;0.70;0.50;;;9.60;99.90;;;10.18;100.00;101730.41;4996726;28;20455;-73
2021/04/01 03:15:50;;;;;;;1.57;1.47;;;9.60;99.90;;;10.16;100.00;102725.59;4995522;28;20561;-73
2021/04/01 03:18:19;;;;;;;0.70;0.60;;;9.60;99.90;;;10.11;100.00;103381.41;4997014;28;20450;-73
2021/04/01 03:20:47;;;;;;;0.70;0.50;;;9.60;99.90;;;10.07;100.00;104703.97;4997414;28;20469;-72
2021/04/01 03:23:15;;;;;;;0.70;0.50;;;9.50;99.90;;;9.99;100.00;104689.47;4997156;28;20418;-72
2021/04/01 03:25:44;;;;;;;0.70;0.60;;;9.40;99.90;;;10.02;100.00;105692.47;4996744;28;20470;-72
2021/04/01 03:28:11;;;;;;;0.70;0.60;;;9.40;99.90;;;10.03;100.00;106359.50;4996096;28;20439;-72
2021/04/01 03:30:48;;;;;;;0.70;0.60;;;9.40;99.90;;;10.10;100.00;107037.81;4991834;28;20506;-72
2021/04/01 03:33:15;;;;;;;0.70;0.60;;;9.40;99.90;;;10.10;100.00;107369.63;4996763;28;20934;-73
2021/04/01 03:35:42;;;;;;;0.70;0.60;;;9.50;99.90;;;10.05;100.00;108359.66;4995409;28;20453;-72
2021/04/01 03:38:12;;;;;;;0.70;0.60;;;9.40;99.90;;;10.00;100.00;108683.06;4996428;28;20437;-72
2021/04/01 03:40:39;;;;;;;0.70;0.60;;;9.40;99.90;;;9.98;100.00;109345.03;4996603;28;20506;-73
2021/04/01 03:43:07;;;;;;;0.70;0.70;;;9.40;99.90;;;10.06;100.00;109027.25;4996675;28;20510;-73
2021/04/01 03:45:34;;;;;;;0.70;0.60;;;9.40;99.90;;;10.19;100.00;109383.84;4994779;28;20453;-72
2021/04/01 03:48:01;;;;;;;0.70;0.50;;;9.60;99.90;;;10.30;100.00;109070.72;4996472;28;20449;-73
2021/04/01 03:50:28;;;;;;;0.70;0.50;;;9.70;99.90;;;10.28;100.00;108401.91;4995241;28;20438;-73
2021/04/01 03:52:55;;;;;;;0.70;0.60;;;9.70;99.90;;;10.24;100.00;108726.38;4996332;28;20431;-73
2021/04/01 03:57:52;;;;;;;0.70;0.60;;;9.70;99.90;;;10.16;100.00;109045.19;4995933;28;20524;-73
2021/04/01 04:00:26;;;;;;;0.70;0.50;;;9.60;99.90;;;10.24;100.00;109059.38;5001026;28;20760;-72
2021/04/01 04:05:54;;;;;;;1.20;1.10;;;9.60;99.90;;;10.24;100.00;108726.38;4996612;28;20414;-72
2021/04/01 04:16:41;;;;;;;0.70;0.50;;;9.60;99.90;;;10.24;100.00;107394.75;4996332;28;20435;-73
2021/04/01 04:19:08;;;;;;;0.70;0.60;;;9.50;99.90;;;10.22;100.00;106725.44;4995955;28;20817;-72
2021/04/01 04:21:35;;;;;;;0.70;0.60;;;9.50;99.90;;;10.26;100.00;107731.38;4995662;28;20469;-72
2021/04/01 04:24:04;;;;;;;0.90;0.80;;;9.60;99.90;;;10.24;100.00;108393.44;4994379;28;20423;-72
2021/04/01 04:26:31;;;;;;;0.93;0.93;;;9.60;99.90;;;10.23;100.00;110056.59;4995951;28;20900;-72
2021/04/01 04:28:58;;;;;;;0.70;0.50;;;9.60;99.90;;;10.31;100.00;110406.00;4995131;28;20482;-73
2021/04/01 04:31:25;;;;;;;0.70;0.50;;;9.70;99.90;;;10.40;100.00;110089.03;4995290;28;20434;-72
2021/04/01 04:33:53;;;;;;;0.70;0.53;;;9.80;99.90;;;10.43;100.00;109761.56;4997036;28;20869;-72
2021/04/01 04:36:20;;;;;;;0.70;0.50;;;9.80;99.90;;;10.52;100.00;108779.13;5012661;28;21048;-72
2021/04/01 04:38:47;;;;;;;0.70;0.50;;;9.80;99.90;;;10.50;100.00;108442.28;5010696;28;20423;-72
2021/04/01 04:41:14;;;;;;;0.70;0.60;;;9.80;99.90;;;10.46;100.00;108766.91;4994293;28;20451;-73
2021/04/01 04:43:41;;;;;;;0.70;0.60;;;9.80;99.90;;;10.49;100.00;108440.38;4995186;28;20973;-73
2021/04/01 04:46:08;;;;;;;0.80;0.73;;;9.80;99.90;;;10.52;100.00;108778.19;4994423;28;20454;-72
2021/04/01 04:48:35;;;;;;;0.70;0.60;;;9.80;99.90;;;10.50;100.00;108109.22;4994209;28;20541;-72
2021/04/01 04:51:03;;;;;;;0.70;0.50;;;9.80;99.90;;;10.51;100.00;108111.06;4994875;28;20538;-73
2021/04/01 04:53:30;;;;;;;0.70;0.60;;;9.80;99.90;;;10.53;100.00;108447.91;4986273;28;20438;-74
2021/04/01 04:58:31;;;;;;;0.70;0.50;;;9.80;99.90;;;10.55;100.00;108450.72;5003708;28;20439;-73
2021/04/01 05:06:34;;;;;;;0.70;0.60;;;9.80;99.90;;;10.61;100.00;109129.28;4994944;28;20844;-72
2021/04/01 05:09:01;;;;;;;0.70;0.50;;;9.90;99.90;;;10.61;100.00;109794.81;4994877;28;20743;-72
2021/04/01 05:11:28;;;;;;;1.00;0.90;;;9.90;99.90;;;10.55;100.00;109451.13;4993309;28;21001;-73
2021/04/01 05:13:55;;;;;;;0.70;0.50;;;9.90;99.90;;;10.48;100.00;109771.06;4994640;28;20434;-73
2021/04/01 05:16:22;;;;;;;0.70;0.60;;;9.80;99.90;;;10.38;100.00;110418.41;4994673;28;20537;-73
2021/04/01 05:18:49;;;;;;;0.80;0.70;;;9.70;99.90;;;10.27;100.00;110397.38;4994999;28;20512;-73
2021/04/01 05:21:18;;;;;;;0.80;0.60;;;9.60;99.90;;;10.23;100.00;111722.44;4993178;28;20462;-72
2021/04/01 05:23:50;;;;;;;0.70;0.50;;;9.60;99.90;;;10.27;100.00;113397.97;4994179;28;20513;-73
2021/04/01 05:28:51;;;;;;;0.70;0.57;;;9.50;99.90;;;10.12;100.00;113369.47;4992516;28;20951;-73
2021/04/01 05:31:29;;;;;;;0.80;0.60;;;9.50;99.90;;;10.17;100.00;114045.13;4994328;28;20434;-73
2021/04/01 05:33:57;;;;;;;0.70;0.60;;;9.50;99.90;;;10.18;100.00;114046.13;4992917;28;20553;-73
2021/04/01 05:36:31;;;;;;;0.73;0.67;;;9.60;99.90;;;10.14;100.00;114040.19;4994226;28;21002;-72
2021/04/01 05:38:59;;;;;;;0.70;0.60;;;9.50;99.90;;;10.18;100.00;113712.69;4994711;28;20426;-73
2021/04/01 05:41:28;;;;;;;0.70;0.50;;;9.60;99.90;;;10.20;100.00;114050.03;4994228;28;20494;-72
2021/04/01 05:44:14;;;;;;;0.70;0.70;;;9.60;99.90;;;10.21;100.00;113718.59;4994003;28;20517;-72
2021/04/01 05:46:50;;;;;;;0.70;0.60;;;9.50;99.90;;;10.26;100.00;113396.00;4994238;28;20458;-72
2021/04/01 06:05:34;;;;;;;0.70;0.50;;;9.70;99.90;;;10.45;100.00;113764.84;4993773;28;20939;-73
2021/04/01 06:08:08;;;;;;;0.70;0.60;;;9.70;99.90;;;10.55;100.00;113451.91;4993955;28;20423;-72
2021/04/01 06:10:36;;;;;;;0.83;0.83;;;9.80;99.90;;;10.56;100.00;113453.88;4992679;28;20438;-73
2021/04/01 06:13:09;;;;;;;0.70;0.60;;;9.80;99.90;;;10.56;100.00;113452.91;4992621;28;20473;-72
2021/04/01 06:15:37;;;;;;;0.70;0.60;;;9.90;99.90;;;10.54;100.00;113783.56;4993724;28;20434;-72
2021/04/01 06:18:10;;;;;;;0.73;0.70;;;9.90;99.90;;;10.55;100.00;114452.81;4993543;28;20463;-72
2021/04/01 06:20:41;;;;;;;0.70;0.60;;;9.90;99.90;;;10.56;100.00;113787.47;4993884;28;20469;-72
2021/04/01 06:23:11;;;;;;;0.70;0.60;;;9.90;99.90;;;10.59;100.00;113793.38;4997291;28;20986;-71
2021/04/01 06:25:40;;;;;;;1.20;1.10;;;9.90;99.90;;;10.69;100.00;114479.56;4998096;28;20955;-72
2021/04/01 06:28:13;;;;;;;0.70;0.50;;;9.90;99.90;;;10.81;100.00;114502.31;5007451;28;20532;-71
2021/04/01 06:31:03;;;;;;;2.83;1.03;;;10.00;99.90;;;10.94;100.00;114528.06;5000760;28;20439;-72
2021/04/01 06:33:41;;;;;;;0.80;0.80;;;10.20;99.90;;;11.15;100.00;113900.69;4992794;28;20493;-72
2021/04/01 06:36:17;;;;;;;0.70;0.70;;;10.50;99.90;;;11.42;100.00;113952.88;4993178;28;20430;-71
2021/04/01 06:38:45;;;;;;;0.70;0.60;;;10.60;99.90;;;11.52;100.00;110966.41;4993509;28;20426;-71
2021/04/01 06:41:22;;;;;;;0.70;0.60;;;10.70;99.90;;;11.70;100.00;108329.25;4993629;28;20482;-72
2021/04/01 06:44:28;;;;;;;1.53;1.43;;;10.90;99.90;;;11.89;100.00;105360.84;4993531;28;20998;-72
2021/04/01 06:47:12;;;;;;;0.60;0.50;;;11.00;99.90;;;12.15;100.00;102071.28;4993054;28;20434;-71
2021/04/01 06:52:20;;;;;;;0.70;0.60;;;11.60;99.90;;;12.68;100.00;90505.84;4993025;28;20440;-72
2021/04/01 06:55:19;;;;;;;1.37;1.27;;;11.70;99.90;;;13.00;100.00;77272.56;5006845;28;20455;-71
2021/04/01 06:58:10;;;;;;;1.10;0.80;;;12.10;99.90;;;13.62;100.00;48318.44;5013299;28;20425;-71
2021/04/01 07:01:11;;;;;;;0.70;0.60;;;12.50;99.90;;;14.03;100.00;16995.56;5001145;28;20519;-73
2021/04/01 07:03:49;;;;;;;0.70;0.60;;;12.90;99.90;;;14.33;100.00;-334.34;5001515;28;20473;-72
2021/04/01 07:06:22;;;;;;;0.80;0.63;;;13.10;99.90;;;14.68;100.00;-12223.81;4991264;28;20439;-71
2021/04/01 07:11:46;;;;;;;0.70;0.60;;;13.70;99.90;;;15.26;100.00;-21079.34;4976788;28;20809;-72
2021/04/01 07:14:20;;;;;;;0.70;0.60;;;13.90;99.90;;;15.54;100.00;-21103.81;4992907;28;20441;-71
2021/04/01 07:17:02;;;;;;;0.70;0.60;;;14.20;99.90;;;15.67;100.00;-21107.41;4992922;28;20440;-72
2021/04/01 07:30:59;;;;;;;0.70;0.70;;;15.10;99.90;;;17.06;100.00;-21144.75;4994561;28;20837;-73
2021/04/01 07:47:18;;;;;;;1.43;1.10;;;16.00;99.90;;;18.12;100.00;-21173.25;5001236;28;20970;-73
2021/04/01 07:49:48;;;;;;;0.80;0.70;;;16.10;99.90;;;18.82;100.00;-21192.16;5003452;28;20461;-72
2021/04/01 07:52:24;;;;;;;1.53;1.43;;;16.50;99.90;;;18.72;100.00;-21189.28;4994566;28;20439;-73
2021/04/01 08:01:31;;;;;;;1.43;1.27;;;17.10;99.90;;;21.83;100.00;-21272.59;5011015;28;20422;-73
2021/04/01 08:03:53;;;;;;;1.07;0.97;;;17.50;99.90;;;22.49;100.00;-21290.19;4995311;28;20529;-74
2021/04/01 08:06:10;;;;;;;1.10;1.00;;;17.60;99.90;;;21.37;100.00;-21260.34;4993976;28;20438;-73
2021/04/01 08:08:46;;;;;;;1.00;0.90;;;17.90;99.90;;;20.69;100.00;-21242.06;4995257;28;20428;-72
2021/04/01 08:11:24;;;;;;;1.50;1.20;;;18.40;99.90;;;22.18;100.00;-21281.88;4995344;28;20517;-73
2021/04/01 08:14:04;;;;;;;1.47;1.00;;;18.30;99.90;;;21.43;100.00;-21261.97;4994005;28;20456;-73
2021/04/01 08:16:39;;;;;;;1.67;1.57;;;18.50;98.60;;;21.77;100.00;-21270.97;5007276;28;20953;-73
2021/04/01 08:19:10;;;;;;;1.00;0.90;;;18.60;95.30;;;21.94;100.00;-21275.59;4989707;28;20462;-71
2021/04/01 08:21:58;;;;;;;1.33;1.20;;;18.80;89.30;;;22.29;100.00;-21284.75;4994525;28;20509;-70
2021/04/01 08:25:02;;;;;;;1.67;1.37;;;19.10;86.00;;;24.35;100.00;-21339.81;4995805;28;20431;-72
2021/04/01 08:28:08;;;;;;;4.33;1.83;;;19.00;77.90;;;24.01;100.00;-21330.72;4994830;28;20462;-70
2021/04/01 08:37:00;;;;;;;4.50;1.73;;;19.70;67.50;;;24.56;100.00;-21345.38;5005436;28;20492;-73
2021/04/01 08:39:49;;;;;;;2.50;1.60;;;20.30;61.30;;;24.47;100.00;-21342.94;5003282;28;20442;-71
2021/04/01 08:43:33;;;;;;;1.50;1.40;;;20.50;59.30;;;23.39;100.00;-21314.28;5001835;28;20541;-70
2021/04/01 08:46:45;;;;;;;1.93;1.03;;;20.60;59.10;;;23.53;100.00;-21317.94;4985369;28;20970;-73
2021/04/01 08:49:30;;;;;;;3.30;1.73;;;20.90;54.50;;;23.95;100.00;-21329.09;4994183;28;20977;-71
2021/04/01 08:53:00;;;;;;;1.20;0.97;;;21.10;56.10;;;24.73;100.00;-21349.84;4978750;28;20438;-70
2021/04/01 08:55:37;;;;;;;2.47;1.93;;;21.30;51.80;;;26.63;100.00;-21400.13;5001691;28;20449;-71
2021/04/01 08:58:17;;;;;;;1.00;0.90;;;20.90;46.80;;;26.79;100.00;-21404.34;4995297;28;20430;-71
2021/04/01 09:00:44;;;;;;;1.87;1.57;;;21.00;43.60;;;24.52;100.00;-21344.31;4993668;28;20458;-72
2021/04/01 09:03:12;;;;;;;2.03;1.80;;;21.20;45.20;;;25.09;100.00;-21359.22;4993927;28;20452;-72
2021/04/01 09:05:52;;;;;;;1.70;1.60;;;21.30;46.80;;;27.33;100.00;-21418.66;4994083;28;20462;-71
2021/04/01 09:08:27;;;;;;;2.70;1.40;;;21.30;44.40;;;27.70;100.00;-21428.53;4994521;28;20450;-72
2021/04/01 09:10:56;;;;;;;2.43;2.23;;;21.10;45.00;;;25.41;100.00;-21367.91;4993284;28;20450;-72
2021/04/01 09:13:35;;;;;;;3.13;1.90;;;21.50;47.20;;;27.45;100.00;-21422.03;4994260;28;20445;-72
2021/04/01 09:16:16;;;;;;;0.80;0.70;;;21.60;42.10;;;25.00;100.00;-21357.06;4992320;28;20454;-73
2021/04/01 09:18:46;;;;;;;2.00;1.30;;;21.70;43.30;;;26.81;100.00;-21405.00;4991708;28;20477;-72
2021/04/01 09:21:14;;;;;;;1.43;1.10;;;21.80;41.70;;;27.30;100.00;-21418.00;4991324;28;20831;-72
2021/04/01 09:23:47;;;;;;;3.50;3.20;;;21.60;36.00;;;28.17;100.00;-21440.94;4993321;28;20446;-71
2021/04/01 09:26:14;;;;;;;3.60;3.33;;;21.70;35.70;;;28.37;100.00;-21446.34;4992417;28;20530;-72
2021/04/01 09:28:44;;;;;;;4.20;2.30;;;21.60;35.50;;;27.66;100.00;-21427.44;4994608;28;20478;-71
2021/04/01 09:31:13;;;;;;;1.87;1.77;;;22.10;35.60;;;28.27;100.00;-21443.66;4993268;28;20489;-71
2021/04/01 09:33:42;;;;;;;3.30;1.17;;;22.10;33.20;;;28.39;100.00;-21446.91;4993812;28;20481;-71
2021/04/01 09:36:12;;;;;;;2.30;1.90;;;21.80;31.90;;;28.23;100.00;-21442.44;4994433;28;20431;-71
2021/04/01 09:38:42;;;;;;;2.03;1.80;;;21.80;31.60;;;27.72;98.59;-21429.06;4994356;28;20426;-71
2021/04/01 09:41:23;;;;;;;3.33;2.10;;;21.90;28.30;;;26.95;100.00;-21408.66;4994464;28;20425;-71
2021/04/01 09:43:52;;;;;;;1.37;1.17;;;22.20;31.00;;;27.08;100.00;-21412.16;4993233;28;20454;-71
2021/04/01 09:46:22;;;;;;;0.80;0.80;;;23.00;26.30;;;27.91;99.26;-21434.19;4999179;28;20442;-71
2021/04/01 09:49:00;;;;;;;4.50;1.40;;;22.80;26.20;;;27.87;98.39;-21432.97;4996342;28;20463;-71
2021/04/01 09:51:30;;;;;;;2.63;2.43;;;22.90;24.00;;;27.39;100.00;-21420.41;4992929;28;20929;-72
2021/04/01 09:53:59;;;;;;;0.80;0.80;;;23.00;25.80;;;27.90;97.28;-21433.78;4992764;28;20435;-71
2021/04/01 09:56:28;;;;;;;3.50;1.60;;;23.20;22.90;;;29.09;96.51;-21465.25;5000672;28;20427;-72
2021/04/01 09:58:57;;;;;;;1.03;0.93;;;23.20;23.30;;;28.20;97.45;-21441.75;4993785;28;20426;-72
2021/04/01 10:01:47;;;;;;;5.20;1.53;;;23.20;24.30;;;28.01;97.80;-21436.63;4994041;28;21015;-72
2021/04/01 10:04:19;;;;;;;5.33;2.03;;;23.20;24.50;;;28.72;94.29;-21455.53;4997624;28;20470;-72
2021/04/01 10:06:52;;;;;;;2.90;2.13;;;23.10;20.00;;;27.73;99.48;-21429.34;4992226;28;20518;-71
2021/04/01 10:09:21;;;;;;;1.40;1.27;;;23.20;25.00;;;28.32;96.34;-21445.00;4993648;28;20427;-72
2021/04/01 10:11:57;;;;;;;1.10;1.00;;;23.30;22.40;;;28.66;96.92;-21453.91;4997070;28;20435;-72
2021/04/01 10:14:29;;;;;;;1.33;0.80;;;23.10;24.40;;;28.08;95.29;-21438.66;4992566;28;20434;-72
2021/04/01 10:17:20;;;;;;;1.40;0.90;;;23.10;20.90;;;27.86;93.17;-21432.84;4995326;28;21646;-72
2021/04/01 10:19:56;;;;;;;1.73;1.37;;;23.20;19.30;;;27.54;97.27;-21424.34;4995545;28;20473;-72
2021/04/01 10:22:25;;;;;;;2.13;1.37;;;23.20;22.40;;;27.03;97.35;-21410.69;4993314;28;20454;-72
2021/04/01 10:28:12;;;;;;;3.23;2.03;;;23.30;21.50;;;28.27;96.22;-21443.66;4991808;28;20912;-72
2021/04/01 10:30:36;;;;;;;2.37;2.17;;;23.20;22.50;;;27.31;96.97;-21418.13;4996067;28;20509;-72
2021/04/01 10:33:08;;;;;;;1.47;1.37;;;23.70;23.20;;;28.28;96.54;-21443.91;4993953;28;20446;-73
2021/04/01 10:35:37;;;;;;;1.83;1.40;;;23.30;21.60;;;28.01;95.61;-21436.63;4992887;28;20442;-72
2021/04/01 10:38:05;;;;;;;3.20;2.90;;;23.30;20.90;;;28.04;96.71;-21437.44;4993085;28;20426;-72
2021/04/01 10:40:35;;;;;;;0.80;0.70;;;23.40;21.70;;;27.61;96.39;-21426.09;4993625;28;20946;-72
2021/04/01 10:43:06;;;;;;;3.67;2.37;;;23.30;20.80;;;27.78;96.91;-21430.69;4996909;28;20462;-71
2021/04/01 10:45:35;;;;;;;4.80;2.33;;;23.70;20.60;;;28.10;94.94;-21439.19;4995698;28;20438;-72
2021/04/01 10:48:23;;;;;;;2.60;2.40;;;23.00;20.40;;;26.87;98.56;-21406.63;4994148;28;20803;-73
2021/04/01 10:50:54;;;;;;;1.10;1.00;;;23.40;22.00;;;27.84;97.59;-21432.19;4994170;28;20422;-72
2021/04/01 10:53:24;;;;;;;1.07;0.97;;;23.00;22.60;;;27.31;97.98;-21418.25;4992019;28;20502;-72
2021/04/01 10:56:00;;;;;;;2.90;1.43;;;23.00;23.60;;;27.78;99.38;-21430.69;4993041;28;20447;-73
2021/04/01 10:58:27;;;;;;;1.83;1.73;;;23.50;23.60;;;27.82;97.48;-21431.78;4989062;28;20446;-72
2021/04/01 11:00:57;;;;;;;0.90;0.73;;;23.20;23.10;;;27.46;97.12;-21422.31;4990227;28;20462;-72
2021/04/01 11:03:28;;;;;;;1.53;1.40;;;23.40;21.70;;;26.85;100.00;-21405.94;4997140;28;20482;-73
2021/04/01 11:05:57;;;;;;;1.10;1.00;;;24.00;24.00;;;27.99;98.91;-21436.09;4995058;28;20448;-73
2021/04/01 11:08:27;;;;;;;1.07;0.97;;;23.70;22.00;;;27.65;100.00;-21427.31;4996403;28;20442;-73
2021/04/01 11:10:59;;;;;;;1.20;1.10;;;23.90;24.30;;;28.21;97.65;-21442.03;4977404;28;20478;-72
2021/04/01 11:13:34;;;;;;;1.10;1.00;;;23.80;22.50;;;28.02;97.13;-21436.91;4993524;28;20487;-72
2021/04/01 11:16:05;;;;;;;1.80;1.70;;;24.40;19.90;;;28.38;94.69;-21446.63;4996397;28;20441;-72
2021/04/01 11:18:36;;;;;;;1.47;1.37;;;24.20;18.00;;;28.82;95.16;-21458.09;4995236;28;20466;-73
2021/04/01 11:21:06;;;;;;;3.23;1.43;;;24.10;19.10;;;28.31;94.72;-21444.72;4995728;28;20450;-72
2021/04/01 11:23:35;;;;;;;1.27;1.20;;;24.20;18.80;;;28.17;94.53;-21440.94;4977485;28;20610;-72
2021/04/01 11:26:04;;;;;;;1.50;1.07;;;24.20;17.10;;;28.02;93.66;-21436.91;4986881;28;20493;-73
2021/04/01 11:28:38;;;;;;;1.83;1.73;;;24.10;16.50;;;28.21;96.32;-21442.03;4996514;28;20799;-72
2021/04/01 11:31:06;;;;;;;4.63;2.30;;;24.00;19.40;;;28.20;96.33;-21441.75;4994661;28;20960;-72
2021/04/01 11:33:35;;;;;;;3.13;1.10;;;23.90;19.70;;;27.76;99.07;-21430.16;4995985;28;21052;-72
2021/04/01 11:38:41;;;;;;;1.27;1.17;;;24.10;21.00;;;27.97;97.71;-21435.56;4997980;28;20434;-72
2021/04/01 11:41:13;;;;;;;1.27;1.17;;;23.90;21.70;;;27.86;98.33;-21432.84;4995055;28;20442;-72
2021/04/01 11:43:41;;;;;;;0.93;0.83;;;24.20;21.70;;;27.53;98.37;-21423.94;4996211;28;20434;-73
2021/04/01 11:46:17;;;;;;;1.23;0.90;;;23.60;21.80;;;27.38;99.23;-21420.16;4995448;28;20431;-72
2021/04/01 11:48:47;;;;;;;0.80;0.73;;;23.80;22.70;;;27.67;98.92;-21427.72;4995603;28;20474;-72
2021/04/01 11:51:18;;;;;;;1.47;1.37;;;23.90;21.40;;;27.34;99.39;-21419.06;4996307;28;20473;-72
2021/04/01 11:53:46;;;;;;;1.67;1.50;;;23.90;22.20;;;26.63;99.06;-21400.13;4996355;28;20518;-73
2021/04/01 11:56:19;;;;;;;2.77;1.63;;;23.90;20.80;;;26.98;100.00;-21409.59;4995323;28;20434;-71
2021/04/01 11:58:46;;;;;;;7.83;1.90;;;24.20;21.50;;;27.03;100.00;-21410.69;4995248;28;20529;-72
2021/04/01 12:01:32;;;;;;;1.27;1.17;;;24.30;22.10;;;27.06;98.87;-21411.63;4995287;28;20442;-73